Time;durP1;ratioP1;P1;durP2;ratioP2;P2;SDS_P1;SDS_P2;PMS_P1;PMS_P2;Temp;Humidity;BMP_temperature;BMP_pressure;BME280_temperature;BME280_humidity;BME280_pressure;Samples;Min_cycle;Max_cycle;Signal;HPM_P1;HPM_P2
2023/03/07 00:01:49;;;;;;;;;;;;;;;;;;;;;
2023/03/07 00:04:43;;;;;;;20.00;11.30;;;4.90;1.00;;;;;;5102381;28;20187;-85
2023/03/07 00:07:31;;;;;;;18.00;11.43;;;5.00;1.00;;;;;;5049306;28;20208;-86
2023/03/07 00:10:24;;;;;;;20.25;12.18;;;5.00;1.00;;;;;;5083413;28;20205;-86
2023/03/07 00:12:53;;;;;;;15.95;10.77;;;5.00;1.00;;;;;;5077676;28;20270;-86
2023/03/07 00:15:26;;;;;;;16.83;10.65;;;5.00;1.00;;;;;;5094645;28;20189;-86
2023/03/07 00:17:59;;;;;;;20.52;12.20;;;5.00;1.00;;;;;;5062185;28;20235;-86
2023/03/07 00:20:42;;;;;;;;;;;;;;;;;;;;;
2023/03/07 00:23:19;;;;;;;19.02;13.02;;;4.90;1.00;;;;;;5086082;28;20192;-86
2023/03/07 00:26:15;;;;;;;17.08;11.60;;;4.90;1.00;;;;;;5066544;28;20188;-86
2023/03/07 00:29:06;;;;;;;21.38;12.02;;;5.00;1.00;;;;;;5089586;28;20219;-85
2023/03/07 00:31:36;;;;;;;17.65;12.05;;;5.00;1.00;;;;;;5066677;28;20201;-86
2023/03/07 00:34:36;;;;;;;19.13;12.45;;;5.00;1.00;;;;;;5077527;28;20192;-86
2023/03/07 00:38:03;;;;;;;17.98;11.77;;;5.00;1.00;;;;;;5067595;28;20188;-86
2023/03/07 00:41:18;;;;;;;;;;;;;;;;;;;;;
2023/03/07 00:44:12;;;;;;;13.70;10.05;;;5.00;1.00;;;;;;5078865;28;20185;-85
2023/03/07 00:50:54;;;;;;;;;;;;;;;;;;;;;
2023/03/07 00:53:45;;;;;;;;;;;;;;;;;;;;;
2023/03/07 00:56:31;;;;;;;;;;;;;;;;;;;;;
2023/03/07 00:59:39;;;;;;;;;;;;;;;;;;;;;
2023/03/07 01:02:46;;;;;;;;;;;;;;;;;;;;;
2023/03/07 01:05:58;;;;;;;12.07;7.85;;;5.10;1.00;;;;;;5092117;28;20191;-85
2023/03/07 01:08:59;;;;;;;;;;;;;;;;;;;;;
2023/03/07 01:12:11;;;;;;;;;;;;;;;;;;;;;
2023/03/07 01:15:09;;;;;;;10.95;7.70;;;5.20;1.00;;;;;;5082417;28;20180;-86
2023/03/07 01:17:57;;;;;;;10.25;7.78;;;5.20;1.00;;;;;;5071600;28;20743;-87
2023/03/07 01:20:38;;;;;;;9.35;7.22;;;5.20;1.00;;;;;;5097396;28;20755;-86
2023/03/07 01:23:08;;;;;;;9.77;7.20;;;5.20;1.00;;;;;;5084920;28;20187;-86
2023/03/07 01:25:41;;;;;;;9.95;7.30;;;5.20;1.00;;;;;;5075424;28;20180;-86
2023/03/07 01:28:31;;;;;;;;;;;;;;;;;;;;;
2023/03/07 01:31:21;;;;;;;9.63;7.22;;;5.20;1.00;;;;;;5089530;28;20223;-87
2023/03/07 01:34:05;;;;;;;;;;;;;;;;;;;;;
2023/03/07 01:36:35;;;;;;;8.73;6.90;;;5.30;1.00;;;;;;5093857;28;20627;-85
2023/03/07 01:39:12;;;;;;;10.23;7.57;;;5.30;1.00;;;;;;5074678;28;20220;-85
2023/03/07 01:42:08;;;;;;;11.40;7.57;;;5.30;1.00;;;;;;5082625;28;20195;-85
2023/03/07 01:45:02;;;;;;;18.35;7.95;;;5.30;1.00;;;;;;5080229;28;20253;-85
2023/03/07 01:47:36;;;;;;;11.30;7.55;;;5.30;1.00;;;;;;5080186;28;20180;-85
2023/03/07 01:50:53;;;;;;;12.77;8.00;;;5.30;1.00;;;;;;5084316;28;20203;-86
2023/03/07 01:53:18;;;;;;;9.20;7.38;;;5.30;1.00;;;;;;5076584;28;20582;-85
2023/03/07 01:56:26;;;;;;;9.23;7.40;;;5.30;1.00;;;;;;5081974;28;20188;-85
2023/03/07 01:59:32;;;;;;;;;;;;;;;;;;;;;
2023/03/07 02:02:03;;;;;;;11.13;8.20;;;5.20;1.00;;;;;;5100245;28;20185;-85
2023/03/07 02:04:52;;;;;;;9.52;7.95;;;5.20;1.00;;;;;;5077362;28;20186;-85
2023/03/07 02:07:48;;;;;;;12.88;7.90;;;5.20;1.00;;;;;;5084565;28;20598;-85
2023/03/07 02:10:24;;;;;;;12.90;8.50;;;5.20;1.00;;;;;;5074837;28;20701;-87
2023/03/07 02:12:56;;;;;;;12.68;9.13;;;5.20;1.00;;;;;;5082041;28;20271;-85
2023/03/07 02:15:52;;;;;;;;;;;;;;;;;;;;;
2023/03/07 02:18:59;;;;;;;;;;;;;;;;;;;;;
2023/03/07 02:21:49;;;;;;;12.35;9.82;;;5.30;1.00;;;;;;5083588;28;20219;-85
2023/03/07 02:24:32;;;;;;;13.25;9.80;;;5.30;1.00;;;;;;5085690;28;20183;-87
2023/03/07 02:27:04;;;;;;;15.35;11.20;;;5.30;1.00;;;;;;5084520;28;20205;-85
2023/03/07 02:29:34;;;;;;;14.70;11.50;;;5.30;1.00;;;;;;5083739;28;20172;-84
2023/03/07 02:32:10;;;;;;;15.63;11.52;;;5.30;1.00;;;;;;5078778;28;20179;-86
2023/03/07 02:34:42;;;;;;;16.40;11.05;;;5.30;1.00;;;;;;5103018;28;20186;-85
2023/03/07 02:37:32;;;;;;;16.15;10.90;;;5.30;1.00;;;;;;5070616;28;20188;-86
2023/03/07 02:40:24;;;;;;;12.57;9.75;;;5.30;1.00;;;;;;5079124;28;20305;-86
2023/03/07 02:43:08;;;;;;;12.48;9.00;;;5.30;1.00;;;;;;5089458;28;20620;-87
2023/03/07 02:45:39;;;;;;;15.32;10.82;;;5.30;1.00;;;;;;5071324;28;20176;-85
2023/03/07 02:48:18;;;;;;;;;;;;;;;;;;;;;
2023/03/07 02:50:46;;;;;;;12.27;9.93;;;5.40;1.00;;;;;;5088179;28;20195;-86
2023/03/07 02:53:47;;;;;;;15.55;9.80;;;5.40;1.00;;;;;;5077236;28;20619;-86
2023/03/07 02:56:19;;;;;;;14.95;9.48;;;5.40;1.00;;;;;;5086442;28;20250;-84
2023/03/07 02:58:47;;;;;;;12.32;8.70;;;5.40;1.00;;;;;;5101057;28;20211;-86
2023/03/07 03:04:37;;;;;;;;;;;;;;;;;;;;;
2023/03/07 03:07:18;;;;;;;;;;;;;;;;;;;;;
2023/03/07 03:10:09;;;;;;;;;;;;;;;;;;;;;
2023/03/07 03:12:47;;;;;;;;;;;;;;;;;;;;;
2023/03/07 03:15:31;;;;;;;;;;;;;;;;;;;;;
2023/03/07 03:17:59;;;;;;;14.38;10.43;;;5.30;1.00;;;;;;5089376;28;20680;-86
2023/03/07 03:20:47;;;;;;;14.40;9.95;;;5.30;1.00;;;;;;5100618;28;20203;-85
2023/03/07 03:24:12;;;;;;;;;;;;;;;;;;;;;
2023/03/07 03:26:43;;;;;;;14.40;10.18;;;5.30;1.00;;;;;;5092361;28;20180;-85
2023/03/07 03:29:34;;;;;;;15.98;10.60;;;5.20;1.00;;;;;;5072643;28;20187;-85
2023/03/07 03:32:31;;;;;;;17.60;12.07;;;5.30;1.00;;;;;;5091704;28;20728;-85
2023/03/07 03:35:21;;;;;;;14.23;10.77;;;5.20;1.00;;;;;;5073201;28;20212;-85
2023/03/07 03:37:49;;;;;;;20.10;12.05;;;5.20;1.00;;;;;;5094257;28;20268;-86
2023/03/07 03:43:26;;;;;;;16.05;11.10;;;5.20;1.00;;;;;;5089804;28;20199;-85
2023/03/07 03:46:12;;;;;;;14.87;10.37;;;5.20;1.00;;;;;;5075931;28;20185;-85
2023/03/07 03:48:51;;;;;;;16.45;10.75;;;5.20;1.00;;;;;;5080189;28;20204;-85
2023/03/07 03:51:32;;;;;;;17.52;11.80;;;5.10;1.00;;;;;;5082108;28;20197;-85
2023/03/07 03:57:16;;;;;;;16.20;11.43;;;5.10;1.00;;;;;;5077857;28;20201;-85
2023/03/07 03:59:55;;;;;;;17.20;10.98;;;5.10;1.00;;;;;;5066916;28;20668;-86
2023/03/07 04:02:34;;;;;;;17.58;10.82;;;5.10;1.00;;;;;;5091230;28;20181;-85
2023/03/07 04:07:59;;;;;;;14.00;10.35;;;5.10;1.00;;;;;;5079966;28;20196;-85
2023/03/07 04:10:27;;;;;;;22.77;9.63;;;5.10;1.00;;;;;;5067925;28;20208;-85
2023/03/07 04:15:56;;;;;;;;;;;;;;;;;;;;;
2023/03/07 04:18:41;;;;;;;14.80;10.80;;;5.10;1.00;;;;;;5098491;28;20200;-86
2023/03/07 04:21:17;;;;;;;;;;;;;;;;;;;;;
2023/03/07 04:24:16;;;;;;;;;;;;;;;;;;;;;
2023/03/07 04:27:06;;;;;;;;;;;;;;;;;;;;;
2023/03/07 04:30:13;;;;;;;17.33;11.30;;;5.10;1.00;;;;;;5090723;28;20197;-85
2023/03/07 04:33:02;;;;;;;19.23;12.63;;;5.10;1.00;;;;;;5102004;28;20168;-86
2023/03/07 04:35:53;;;;;;;19.73;11.90;;;5.10;1.00;;;;;;5096683;28;20219;-85
2023/03/07 04:38:18;;;;;;;16.38;11.70;;;5.10;1.00;;;;;;5070988;28;20235;-85
2023/03/07 04:40:57;;;;;;;16.00;11.50;;;5.10;1.00;;;;;;5072641;28;20199;-86
2023/03/07 04:43:25;;;;;;;18.27;12.63;;;5.10;1.00;;;;;;5065493;28;20266;-85
2023/03/07 04:46:09;;;;;;;;;;;;;;;;;;;;;
2023/03/07 04:48:42;;;;;;;14.65;11.45;;;5.10;1.00;;;;;;5092298;28;20198;-85
2023/03/07 04:51:08;;;;;;;18.08;12.57;;;5.10;1.00;;;;;;5073293;28;20218;-86
2023/03/07 04:53:36;;;;;;;18.05;11.63;;;5.10;1.00;;;;;;5089134;28;20181;-85
2023/03/07 04:56:12;;;;;;;18.35;11.90;;;5.10;1.00;;;;;;5090708;28;20187;-85
2023/03/07 04:58:44;;;;;;;22.20;12.07;;;5.00;1.00;;;;;;5093006;28;20536;-85
2023/03/07 05:01:12;;;;;;;24.00;13.75;;;5.10;1.00;;;;;;5076313;28;20262;-85
2023/03/07 05:03:49;;;;;;;15.38;10.75;;;5.00;1.00;;;;;;5071449;28;20181;-85
2023/03/07 05:06:15;;;;;;;21.00;11.95;;;5.10;1.00;;;;;;5084767;28;20208;-85
2023/03/07 05:08:44;;;;;;;15.93;11.75;;;5.10;1.00;;;;;;5089076;28;20254;-87
2023/03/07 05:11:16;;;;;;;15.65;11.38;;;5.00;1.00;;;;;;5084109;28;20219;-86
2023/03/07 05:13:44;;;;;;;17.88;10.98;;;5.00;1.00;;;;;;5102702;28;20191;-86
2023/03/07 05:16:17;;;;;;;17.05;12.40;;;5.00;1.00;;;;;;5074651;28;20999;-85
2023/03/07 05:18:55;;;;;;;;;;;;;;;;;;;;;
2023/03/07 05:21:46;;;;;;;18.45;10.38;;;5.00;1.00;;;;;;5087925;28;20204;-85
2023/03/07 05:24:19;;;;;;;16.17;11.27;;;5.00;1.00;;;;;;5086938;28;20187;-86
2023/03/07 05:26:55;;;;;;;16.38;11.60;;;5.00;1.00;;;;;;5086763;28;20564;-86
2023/03/07 05:29:41;;;;;;;17.02;12.05;;;5.00;1.00;;;;;;5078348;28;20193;-86
2023/03/07 05:32:06;;;;;;;15.43;10.27;;;5.00;1.00;;;;;;5078672;28;20196;-85
2023/03/07 05:34:52;;;;;;;;;;;;;;;;;;;;;
2023/03/07 05:37:23;;;;;;;14.95;10.90;;;5.10;1.00;;;;;;5094216;28;20447;-85
2023/03/07 05:39:59;;;;;;;15.27;9.68;;;5.10;1.00;;;;;;5104120;28;20180;-85
2023/03/07 05:42:28;;;;;;;16.02;12.32;;;5.10;1.00;;;;;;5067988;28;20195;-85
2023/03/07 05:45:04;;;;;;;;;;;;;;;;;;;;;
2023/03/07 05:47:45;;;;;;;18.15;12.05;;;5.10;1.00;;;;;;5091427;28;20529;-85
2023/03/07 05:50:17;;;;;;;15.68;11.70;;;5.10;1.00;;;;;;5086123;28;20209;-85
2023/03/07 05:52:51;;;;;;;21.70;12.45;;;5.10;1.00;;;;;;5091259;28;20263;-86
2023/03/07 05:55:25;;;;;;;15.23;9.90;;;5.20;1.00;;;;;;5077215;28;20181;-85
2023/03/07 05:58:04;;;;;;;;;;;;;;;;;;;;;
2023/03/07 06:00:32;;;;;;;16.63;11.50;;;5.20;1.00;;;;;;5098651;28;21204;-86
2023/03/07 06:03:10;;;;;;;17.92;11.90;;;5.20;1.00;;;;;;5099602;28;20218;-85
2023/03/07 06:05:38;;;;;;;20.63;11.50;;;5.20;1.00;;;;;;5095142;28;20225;-85
2023/03/07 06:08:47;;;;;;;19.98;10.05;;;5.20;1.00;;;;;;5079778;28;20181;-86
2023/03/07 06:11:13;;;;;;;18.60;11.82;;;5.20;1.00;;;;;;5079657;28;20205;-85
2023/03/07 06:13:51;;;;;;;;;;;;;;;;;;;;;
2023/03/07 06:16:37;;;;;;;18.45;11.23;;;5.20;1.00;;;;;;5095086;28;20539;-86
2023/03/07 06:19:14;;;;;;;23.90;12.48;;;5.20;1.00;;;;;;5084216;28;20230;-85
2023/03/07 06:24:53;;;;;;;19.00;12.63;;;5.30;1.00;;;;;;5083574;28;20179;-86
2023/03/07 06:27:32;;;;;;;16.33;11.80;;;5.30;1.00;;;;;;5081678;28;20650;-85
2023/03/07 06:30:41;;;;;;;20.75;12.35;;;5.30;1.00;;;;;;5078578;28;20253;-87
2023/03/07 06:35:57;;;;;;;18.85;12.18;;;5.30;1.00;;;;;;5047939;28;20192;-85
2023/03/07 06:38:27;;;;;;;18.88;11.60;;;5.30;1.00;;;;;;5066994;28;20265;-86
2023/03/07 06:40:59;;;;;;;15.02;10.10;;;5.40;1.00;;;;;;5095624;28;20233;-85
2023/03/07 06:43:28;;;;;;;17.50;11.43;;;5.40;1.00;;;;;;5076459;28;20177;-86
2023/03/07 06:45:53;;;;;;;15.77;11.20;;;5.40;1.00;;;;;;5103896;28;20262;-85
2023/03/07 06:48:44;;;;;;;25.47;11.17;;;5.40;1.00;;;;;;5080480;28;20307;-85
2023/03/07 06:51:19;;;;;;;17.05;10.23;;;5.40;1.00;;;;;;5076009;28;20211;-86
2023/03/07 06:54:19;;;;;;;13.85;10.07;;;5.50;1.00;;;;;;5069063;28;20646;-86
2023/03/07 06:57:12;;;;;;;15.90;10.75;;;5.50;1.00;;;;;;5081928;28;20188;-86
2023/03/07 07:00:18;;;;;;;13.90;10.27;;;5.50;1.00;;;;;;5090491;28;20210;-83
2023/03/07 07:02:53;;;;;;;16.60;9.27;;;5.50;1.00;;;;;;5075954;28;20196;-83
2023/03/07 07:05:21;;;;;;;13.65;9.45;;;5.70;1.00;;;;;;5076264;28;20234;-82
2023/03/07 07:07:50;;;;;;;14.60;10.00;;;5.80;1.00;;;;;;5085300;28;20258;-84
2023/03/07 07:13:03;;;;;;;13.85;10.35;;;5.80;99.90;;;;;;5098934;28;20226;-83
2023/03/07 07:15:29;;;;;;;17.30;10.85;;;5.80;99.90;;;;;;5093697;28;20187;-83
2023/03/07 07:17:55;;;;;;;16.42;11.25;;;5.80;99.90;;;;;;5107882;28;20235;-82
2023/03/07 07:20:20;;;;;;;16.33;9.80;;;5.90;99.90;;;;;;5100728;28;20204;-83
2023/03/07 07:22:46;;;;;;;13.77;9.67;;;5.90;99.90;;;;;;5098765;28;20184;-82
2023/03/07 07:25:12;;;;;;;17.52;10.35;;;5.90;99.90;;;;;;5084265;28;20184;-83
2023/03/07 07:27:38;;;;;;;14.60;8.83;;;5.90;99.90;;;;;;5105528;28;20214;-84
2023/03/07 07:30:05;;;;;;;14.20;11.10;;;5.90;99.90;;;;;;5098602;28;20203;-84
2023/03/07 07:32:30;;;;;;;12.18;8.80;;;6.00;99.90;;;;;;5101692;28;20184;-82
2023/03/07 07:34:56;;;;;;;12.50;9.30;;;6.00;99.90;;;;;;5100408;28;20213;-83
2023/03/07 07:37:22;;;;;;;10.27;7.90;;;6.00;99.90;;;;;;5081661;28;20188;-84
2023/03/07 07:39:49;;;;;;;13.20;10.27;;;6.00;99.90;;;;;;5079507;28;20436;-83
2023/03/07 07:42:15;;;;;;;14.50;9.48;;;6.00;99.90;;;;;;5098639;28;20190;-83
2023/03/07 07:44:40;;;;;;;13.63;8.30;;;6.00;99.90;;;;;;5086607;28;21040;-83
2023/03/07 07:47:06;;;;;;;14.00;9.87;;;6.00;99.90;;;;;;5085178;28;20172;-83
2023/03/07 07:49:34;;;;;;;15.03;9.97;;;6.00;99.90;;;;;;5074775;28;20219;-84
2023/03/07 07:52:00;;;;;;;13.32;9.13;;;6.00;99.90;;;;;;5091141;28;20199;-84
2023/03/07 07:54:25;;;;;;;12.70;8.50;;;6.00;99.90;;;;;;5091354;28;20552;-83
2023/03/07 07:56:51;;;;;;;12.67;8.30;;;6.10;99.90;;;;;;5080529;28;20201;-83
2023/03/07 07:59:19;;;;;;;12.63;8.63;;;6.20;99.90;;;;;;5114370;28;20247;-83
2023/03/07 08:01:50;;;;;;;14.80;9.20;;;6.20;27.40;;;;;;5072992;28;20211;-84
2023/03/07 08:04:23;;;;;;;11.73;8.40;;;6.30;2.30;;;;;;5075445;28;20223;-83
2023/03/07 08:06:48;;;;;;;13.95;8.38;;;6.30;1.00;;;;;;5100969;28;20176;-85
2023/03/07 08:09:14;;;;;;;11.10;8.40;;;6.40;1.00;;;;;;5089015;28;20184;-83
2023/03/07 08:11:45;;;;;;;11.13;8.07;;;6.40;1.00;;;;;;5113018;28;20215;-83
2023/03/07 08:14:10;;;;;;;11.38;8.00;;;6.40;1.00;;;;;;5088833;28;20210;-84
2023/03/07 08:16:36;;;;;;;10.80;7.23;;;6.40;1.00;;;;;;5107015;28;20179;-81
2023/03/07 08:19:07;;;;;;;12.10;8.47;;;6.40;1.00;;;;;;5080989;28;20287;-83
2023/03/07 08:21:40;;;;;;;11.18;8.15;;;6.50;99.90;;;;;;5104008;28;20571;-83
2023/03/07 08:24:33;;;;;;;;;;;;;;;;;;;;;
2023/03/07 08:27:08;;;;;;;13.02;8.05;;;6.50;99.90;;;;;;5110149;28;20262;-83
2023/03/07 08:29:34;;;;;;;11.43;7.18;;;6.50;99.90;;;;;;5093036;28;20178;-83
2023/03/07 08:32:00;;;;;;;12.60;7.40;;;6.60;99.90;;;;;;5107974;28;20192;-83
2023/03/07 08:34:25;;;;;;;11.30;9.10;;;6.70;52.30;;;;;;5092797;28;20243;-83
2023/03/07 08:36:51;;;;;;;10.33;7.70;;;6.60;1.00;;;;;;5079701;28;20439;-84
2023/03/07 08:39:20;;;;;;;12.52;7.80;;;6.60;91.70;;;;;;5110659;28;20207;-83
2023/03/07 08:41:46;;;;;;;11.25;8.25;;;6.60;36.20;;;;;;5110984;28;20199;-84
2023/03/07 08:44:11;;;;;;;9.97;7.47;;;6.60;99.90;;;;;;5074744;28;20658;-82
2023/03/07 08:46:39;;;;;;;11.67;7.60;;;6.60;99.90;;;;;;5065462;28;20241;-84
2023/03/07 08:49:12;;;;;;;11.80;8.20;;;6.70;43.60;;;;;;5067649;28;20216;-84
2023/03/07 08:51:37;;;;;;;14.50;8.95;;;6.60;21.50;;;;;;5065449;28;20223;-83
2023/03/07 08:54:13;;;;;;;11.40;7.97;;;6.60;1.00;;;;;;5087928;28;20179;-84
2023/03/07 08:56:39;;;;;;;11.77;8.07;;;6.70;1.00;;;;;;5091162;28;20180;-82
2023/03/07 08:59:04;;;;;;;13.60;7.67;;;6.70;1.00;;;;;;5063129;28;20299;-84
2023/03/07 09:01:30;;;;;;;14.13;9.20;;;6.80;10.70;;;;;;5079888;28;20204;-83
2023/03/07 09:03:56;;;;;;;11.90;7.27;;;6.90;79.10;;;;;;5106009;28;20194;-83
2023/03/07 09:06:22;;;;;;;11.50;8.50;;;6.90;1.00;;;;;;5110591;28;20430;-83
2023/03/07 09:08:49;;;;;;;11.50;7.53;;;6.90;1.00;;;;;;5095428;28;20188;-83
2023/03/07 09:11:16;;;;;;;9.25;6.95;;;7.00;1.00;;;;;;5109530;28;20460;-84
2023/03/07 09:13:44;;;;;;;9.40;7.63;;;7.10;1.00;;;;;;5082111;28;20617;-84
2023/03/07 09:16:10;;;;;;;11.60;7.30;;;7.30;1.00;;;;;;5093645;28;20187;-84
2023/03/07 09:18:38;;;;;;;11.10;8.03;;;7.50;1.00;;;;;;5086234;28;20705;-85
2023/03/07 09:21:05;;;;;;;10.00;6.60;;;7.70;1.00;;;;;;5102028;28;20290;-84
2023/03/07 09:23:30;;;;;;;9.30;7.63;;;7.80;99.90;;;;;;5085666;28;20186;-84
2023/03/07 09:26:05;;;;;;;9.97;6.97;;;7.80;99.90;;;;;;5079414;28;20207;-84
2023/03/07 09:28:41;;;;;;;11.13;8.20;;;7.70;1.00;;;;;;5098259;28;20184;-84
2023/03/07 09:31:17;;;;;;;13.10;8.10;;;7.60;1.00;;;;;;5104518;28;20526;-84
2023/03/07 09:34:21;;;;;;;;;;;;;;;;;;;;;
2023/03/07 09:37:27;;;;;;;10.90;8.32;;;7.50;99.90;;;;;;5113954;28;20262;-84
2023/03/07 09:39:57;;;;;;;12.02;8.48;;;7.30;56.60;;;;;;5098345;28;20253;-83
2023/03/07 09:42:46;;;;;;;13.02;8.77;;;7.20;99.90;;;;;;5085965;28;20184;-84
2023/03/07 09:45:41;;;;;;;11.00;7.60;;;7.20;15.10;;;;;;5087440;28;20237;-84
2023/03/07 09:48:19;;;;;;;12.77;9.18;;;7.30;23.00;;;;;;5104965;28;20273;-84
2023/03/07 09:51:11;;;;;;;14.80;9.63;;;7.20;99.90;;;;;;5107724;28;20513;-83
2023/03/07 09:54:08;;;;;;;;;;;;;;;;;;;;;
2023/03/07 09:57:14;;;;;;;;;;;;;;;;;;;;;
2023/03/07 10:02:39;;;;;;;15.35;8.38;;;7.00;27.90;;;;;;5090776;28;20200;-84
2023/03/07 10:05:19;;;;;;;11.38;7.97;;;7.00;8.80;;;;;;5087903;28;20180;-84
2023/03/07 10:07:44;;;;;;;10.35;8.13;;;6.90;99.90;;;;;;5105165;28;20185;-83
2023/03/07 10:10:19;;;;;;;9.00;7.50;;;6.90;97.30;;;;;;5088106;28;20215;-83
2023/03/07 10:13:08;;;;;;;14.45;7.97;;;6.90;1.00;;;;;;5101065;28;20184;-83
2023/03/07 10:15:44;;;;;;;10.90;7.45;;;6.90;99.90;;;;;;5092225;28;20188;-84
2023/03/07 10:18:13;;;;;;;12.73;7.68;;;6.90;97.60;;;;;;5089483;28;20211;-83
2023/03/07 10:21:13;;;;;;;9.90;7.72;;;6.90;99.90;;;;;;5092840;28;20669;-84
2023/03/07 10:23:51;;;;;;;10.13;7.55;;;6.80;60.50;;;;;;5100821;28;20177;-84
2023/03/07 10:26:31;;;;;;;7.78;5.50;;;6.70;99.90;;;;;;5102922;28;20172;-84
2023/03/07 10:29:13;;;;;;;7.25;4.70;;;6.50;1.00;;;;;;5084002;28;20180;-84
2023/03/07 10:31:43;;;;;;;6.75;4.85;;;6.20;99.90;;;;;;5109128;28;20199;-84
2023/03/07 10:34:29;;;;;;;8.77;5.90;;;6.00;1.00;;;;;;5068583;28;20761;-85
2023/03/07 10:37:10;;;;;;;8.25;6.18;;;5.90;93.40;;;;;;5080782;28;20240;-84
2023/03/07 10:39:50;;;;;;;7.55;6.25;;;5.80;99.90;;;;;;5101900;28;20209;-84
2023/03/07 10:42:35;;;;;;;10.02;6.15;;;5.70;1.00;;;;;;5110338;28;20210;-84
2023/03/07 10:47:49;;;;;;;7.63;5.20;;;5.60;1.00;;;;;;5096134;28;20200;-84
2023/03/07 10:50:40;;;;;;;8.13;5.43;;;5.60;1.00;;;;;;5095175;28;20583;-85
2023/03/07 10:53:37;;;;;;;9.13;6.25;;;5.50;1.00;;;;;;5084654;28;20281;-84
2023/03/07 10:56:14;;;;;;;8.02;5.55;;;5.40;99.90;;;;;;5110235;28;20203;-84
2023/03/07 10:59:00;;;;;;;9.93;5.80;;;5.30;85.80;;;;;;5087604;28;20450;-84
2023/03/07 11:01:29;;;;;;;7.82;5.65;;;5.30;99.90;;;;;;5098330;28;20226;-84
2023/03/07 11:04:04;;;;;;;6.43;5.25;;;5.30;99.90;;;;;;5108432;28;20184;-84
2023/03/07 11:06:35;;;;;;;7.85;5.47;;;5.30;99.90;;;;;;5085374;28;20247;-84
2023/03/07 11:09:13;;;;;;;8.55;5.90;;;5.40;99.90;;;;;;5091026;28;20195;-84
2023/03/07 11:11:55;;;;;;;7.55;5.68;;;5.50;99.90;;;;;;5076935;28;20201;-84
2023/03/07 11:14:52;;;;;;;6.13;4.50;;;5.60;99.90;;;;;;5075277;28;20641;-85
2023/03/07 11:17:36;;;;;;;;;;;;;;;;;;;;;
2023/03/07 11:20:10;;;;;;;7.63;5.45;;;5.60;99.90;;;;;;5109109;28;20264;-84
2023/03/07 11:22:36;;;;;;;8.10;5.93;;;5.60;99.90;;;;;;5085371;28;20231;-84
2023/03/07 11:25:17;;;;;;;6.83;5.13;;;5.70;99.90;;;;;;5075950;28;20184;-84
2023/03/07 11:28:00;;;;;;;6.43;4.75;;;5.70;99.90;;;;;;5102995;28;20172;-84
2023/03/07 11:30:52;;;;;;;5.53;4.68;;;5.80;99.90;;;;;;5097801;28;20220;-84
2023/03/07 11:36:43;;;;;;;5.85;4.50;;;5.90;99.90;;;;;;5013671;28;20320;-84
2023/03/07 11:39:38;;;;;;;6.05;4.47;;;6.00;72.00;;;;;;5102416;28;20210;-83
2023/03/07 11:42:23;;;;;;;9.02;6.03;;;6.10;70.30;;;;;;5104078;28;20600;-83
2023/03/07 11:44:58;;;;;;;10.45;7.60;;;6.20;86.50;;;;;;5071798;28;20189;-83
2023/03/07 11:47:44;;;;;;;11.73;8.90;;;6.30;32.20;;;;;;5096573;28;20425;-84
2023/03/07 11:51:11;;;;;;;;;;;;;;;;;;;;;
2023/03/07 11:54:35;;;;;;;8.25;5.80;;;6.50;1.00;;;;;;5036244;28;20313;-84
2023/03/07 11:57:15;;;;;;;8.20;6.07;;;6.60;1.00;;;;;;5037889;28;20654;-84
2023/03/07 12:00:31;;;;;;;7.00;5.00;;;6.60;99.90;;;;;;5051427;28;20647;-83
2023/03/07 12:07:13;;;;;;;;;;;;;;;;;;;;;
2023/03/07 12:10:33;;;;;;;3.38;2.83;;;6.40;99.90;;;;;;5058885;28;20250;-84
2023/03/07 12:13:36;;;;;;;3.00;2.38;;;6.30;1.00;;;;;;5066193;28;20182;-83
2023/03/07 12:16:22;;;;;;;3.38;2.67;;;6.30;1.00;;;;;;5068087;28;20581;-85
2023/03/07 12:19:35;;;;;;;3.53;2.83;;;6.30;1.00;;;;;;5071220;28;20201;-84
2023/03/07 12:22:52;;;;;;;9.05;8.15;;;6.30;1.00;;;;;;5064109;28;20186;-83
2023/03/07 12:25:46;;;;;;;3.22;2.90;;;6.30;1.00;;;;;;5069097;28;20184;-83
2023/03/07 12:29:10;;;;;;;2.40;2.00;;;6.40;1.00;;;;;;5058787;28;20186;-83
2023/03/07 12:32:36;;;;;;;3.20;2.67;;;6.50;1.00;;;;;;5054404;28;20205;-84
2023/03/07 12:38:33;;;;;;;4.80;4.32;;;6.70;1.00;;;;;;5034608;28;20221;-84
2023/03/07 12:41:27;;;;;;;4.32;3.20;;;6.70;99.90;;;;;;5058812;28;20649;-83
2023/03/07 12:44:25;;;;;;;3.13;2.35;;;6.70;99.90;;;;;;5052568;28;20198;-83
2023/03/07 12:47:39;;;;;;;2.58;2.20;;;6.60;99.90;;;;;;5058610;28;20209;-83
2023/03/07 13:01:45;;;;;;;;;;;;;;;;;;;;;
2023/03/07 13:08:44;;;;;;;;;;;;;;;;;;;;;
2023/03/07 13:23:01;;;;;;;;;;;;;;;;;;;;;
2023/03/07 13:25:38;;;;;;;;;;;;;;;;;;;;;
2023/03/07 13:35:58;;;;;;;;;;;;;;;;;;;;;
2023/03/07 13:39:13;;;;;;;5.45;3.42;;;6.80;1.00;;;;;;4987055;28;20227;-82
2023/03/07 13:42:30;;;;;;;4.05;3.60;;;6.70;1.00;;;;;;5045873;28;20190;-84
2023/03/07 13:46:02;;;;;;;;;;;;;;;;;;;;;
2023/03/07 13:53:17;;;;;;;;;;;;;;;;;;;;;
2023/03/07 14:20:47;;;;;;;;;;;;;;;;;;;;;
2023/03/07 14:35:14;;;;;;;;;;;;;;;;;;;;;
2023/03/07 15:44:47;;;;;;;;;;;;;;;;;;;;;
2023/03/07 15:47:40;;;;;;;4.85;3.92;;;5.00;99.90;;;;;;5024785;28;20262;-84
2023/03/07 15:50:24;;;;;;;4.93;4.43;;;5.00;99.90;;;;;;5052091;28;20202;-83
2023/03/07 15:53:22;;;;;;;6.35;5.13;;;5.00;1.00;;;;;;5054109;28;20185;-84
2023/03/07 16:06:09;;;;;;;;;;;;;;;;;;;;;
2023/03/07 16:08:50;;;;;;;;;;;;;;;;;;;;;
2023/03/07 16:12:20;;;;;;;5.47;4.65;;;4.90;99.90;;;;;;5053944;28;20231;-82
2023/03/07 16:18:58;;;;;;;4.85;4.35;;;4.80;1.00;;;;;;5040215;28;20205;-82
2023/03/07 16:21:46;;;;;;;7.03;5.20;;;4.80;2.90;;;;;;5032242;28;20217;-83
2023/03/07 16:30:49;;;;;;;8.77;6.25;;;4.60;99.90;;;;;;5040424;28;20221;-82
2023/03/07 16:33:17;;;;;;;9.05;6.78;;;4.50;99.90;;;;;;5061555;28;20260;-82
2023/03/07 16:35:44;;;;;;;9.10;6.80;;;4.50;99.90;;;;;;5046681;28;20190;-83
2023/03/07 16:38:09;;;;;;;6.68;5.90;;;4.50;1.00;;;;;;5048537;28;20205;-82
2023/03/07 16:40:41;;;;;;;7.47;5.95;;;4.40;1.00;;;;;;5052452;28;20832;-84
2023/03/07 16:43:34;;;;;;;8.15;6.30;;;4.40;1.00;;;;;;5058366;28;20174;-83
2023/03/07 16:46:09;;;;;;;8.50;6.57;;;4.40;99.90;;;;;;5057012;28;20268;-84
2023/03/07 16:48:37;;;;;;;7.53;6.28;;;4.30;99.90;;;;;;5051976;28;20250;-83
2023/03/07 16:51:11;;;;;;;8.07;5.88;;;4.30;1.00;;;;;;5045279;28;20290;-82
2023/03/07 16:53:39;;;;;;;8.10;7.10;;;4.20;1.00;;;;;;5045271;28;20196;-83
2023/03/07 16:56:27;;;;;;;8.88;7.13;;;4.20;1.00;;;;;;5035257;28;20228;-83
2023/03/07 16:59:02;;;;;;;9.65;7.00;;;4.20;1.00;;;;;;5056708;28;20209;-82
2023/03/07 17:01:30;;;;;;;10.02;7.35;;;4.20;1.00;;;;;;5064971;28;20256;-83
2023/03/07 17:04:35;;;;;;;;;;;;;;;;;;;;;
2023/03/07 17:07:47;;;;;;;;;;;;;;;;;;;;;
2023/03/07 17:10:21;;;;;;;11.57;8.18;;;4.10;1.00;;;;;;5052477;28;20288;-83
2023/03/07 17:12:53;;;;;;;11.73;8.35;;;4.10;99.90;;;;;;5032002;28;20183;-83
2023/03/07 17:15:23;;;;;;;13.93;10.00;;;4.10;99.90;;;;;;5053327;28;20247;-83
2023/03/07 17:17:52;;;;;;;12.38;9.07;;;4.00;99.90;;;;;;5055715;28;20465;-82
2023/03/07 17:20:20;;;;;;;12.30;8.93;;;4.00;1.00;;;;;;5056589;28;20272;-82
2023/03/07 17:22:50;;;;;;;13.25;9.63;;;4.00;1.00;;;;;;5035770;28;20183;-82
2023/03/07 17:25:19;;;;;;;11.95;8.85;;;3.90;1.00;;;;;;5054182;28;20184;-81
2023/03/07 17:27:53;;;;;;;14.02;9.20;;;3.90;1.00;;;;;;5045813;28;20206;-82
2023/03/07 17:30:25;;;;;;;14.63;9.30;;;3.80;99.90;;;;;;5050482;28;20237;-83
2023/03/07 17:32:51;;;;;;;12.73;10.00;;;3.80;99.90;;;;;;5054747;28;20181;-82
2023/03/07 17:35:22;;;;;;;13.80;9.80;;;3.80;99.90;;;;;;5057077;28;20185;-82
2023/03/07 17:37:50;;;;;;;19.60;10.40;;;3.80;99.90;;;;;;5062242;28;20439;-82
2023/03/07 17:40:23;;;;;;;15.15;10.55;;;3.80;99.90;;;;;;5059443;28;20239;-81
2023/03/07 17:42:50;;;;;;;17.45;11.88;;;3.80;99.90;;;;;;5039725;28;20207;-81
2023/03/07 17:45:16;;;;;;;17.05;12.02;;;3.80;1.00;;;;;;5055882;28;20195;-82
2023/03/07 17:47:42;;;;;;;18.35;12.73;;;3.80;1.00;;;;;;5051561;28;20243;-82
2023/03/07 17:50:09;;;;;;;17.10;12.37;;;3.80;1.00;;;;;;5048714;28;20209;-82
2023/03/07 17:52:37;;;;;;;18.70;12.00;;;3.80;1.00;;;;;;5058666;28;20200;-82
2023/03/07 17:55:03;;;;;;;18.73;12.48;;;3.80;1.00;;;;;;5044971;28;20201;-81
2023/03/07 17:57:28;;;;;;;18.60;12.50;;;3.80;1.00;;;;;;5072697;28;20237;-81
2023/03/07 17:59:57;;;;;;;19.23;13.00;;;3.80;1.00;;;;;;5052619;28;20213;-82
2023/03/07 18:02:24;;;;;;;19.30;12.70;;;3.90;1.00;;;;;;5070928;28;20182;-81
2023/03/07 18:04:50;;;;;;;21.88;13.45;;;3.80;1.00;;;;;;5066481;28;20689;-83
2023/03/07 18:07:18;;;;;;;20.53;12.67;;;3.90;1.00;;;;;;5065768;28;20177;-82
2023/03/07 18:18:25;;;;;;;17.05;10.75;;;3.70;1.00;;;;;;5047207;28;20213;-85
2023/03/07 18:22:01;;;;;;;30.05;20.98;;;3.50;9.90;;;;;;5021315;28;20217;-84
2023/03/07 18:28:23;;;;;;;;;;;;;;;;;;;;;
2023/03/07 18:31:37;;;;;;;20.10;11.75;;;3.30;99.90;;;;;;5032659;28;20673;-83
2023/03/07 18:38:04;;;;;;;;;;;;;;;;;;;;;
2023/03/07 18:54:44;;;;;;;;;;;;;;;;;;;;;
2023/03/07 19:07:46;;;;;;;24.73;14.15;;;3.20;1.00;;;;;;4965791;28;20211;-86
2023/03/07 19:10:44;;;;;;;16.88;10.88;;;3.10;1.00;;;;;;4971432;28;20619;-85
2023/03/07 19:13:50;;;;;;;;;;;;;;;;;;;;;
2023/03/07 19:16:45;;;;;;;21.17;9.10;;;3.00;1.00;;;;;;5028331;28;20206;-85
2023/03/07 19:22:06;;;;;;;14.98;7.97;;;2.90;1.00;;;;;;5009367;28;20277;-85
2023/03/07 19:24:32;;;;;;;15.93;9.18;;;2.80;1.00;;;;;;5038313;28;20189;-84